sensor_id;sensor_type;location;lat;lon;timestamp;P1;durP1;ratioP1;P2;durP2;ratioP2
14874;SDS011;7529;48.170;17.138;2022-11-15T00:00:26;420.52;;;390.58;;
14874;SDS011;7529;48.170;17.138;2022-11-15T00:04:56;388.85;;;361.75;;
14874;SDS011;7529;48.170;17.138;2022-11-15T00:09:27;388.92;;;362.67;;
14874;SDS011;7529;48.170;17.138;2022-11-15T00:14:00;404.40;;;376.48;;
14874;SDS011;7529;48.170;17.138;2022-11-15T00:18:32;387.10;;;360.67;;
14874;SDS011;7529;48.170;17.138;2022-11-15T00:23:04;422.20;;;392.65;;
14874;SDS011;7529;48.170;17.138;2022-11-15T00:27:34;442.73;;;412.88;;
14874;SDS011;7529;48.170;17.138;2022-11-15T00:32:05;441.60;;;410.27;;
14874;SDS011;7529;48.170;17.138;2022-11-15T00:36:35;460.02;;;426.73;;
14874;SDS011;7529;48.170;17.138;2022-11-15T00:41:06;417.67;;;388.83;;
14874;SDS011;7529;48.170;17.138;2022-11-15T00:45:37;427.40;;;397.45;;
14874;SDS011;7529;48.170;17.138;2022-11-15T00:50:09;376.40;;;351.10;;
14874;SDS011;7529;48.170;17.138;2022-11-15T00:54:39;323.25;;;302.00;;
14874;SDS011;7529;48.170;17.138;2022-11-15T00:59:09;286.90;;;268.13;;
14874;SDS011;7529;48.170;17.138;2022-11-15T01:03:40;253.80;;;237.82;;
14874;SDS011;7529;48.170;17.138;2022-11-15T01:08:13;233.10;;;218.43;;
14874;SDS011;7529;48.170;17.138;2022-11-15T01:12:43;314.50;;;294.75;;
14874;SDS011;7529;48.170;17.138;2022-11-15T01:17:14;296.75;;;278.52;;
14874;SDS011;7529;48.170;17.138;2022-11-15T01:21:48;253.70;;;238.88;;
14874;SDS011;7529;48.170;17.138;2022-11-15T01:26:20;269.33;;;252.55;;
14874;SDS011;7529;48.170;17.138;2022-11-15T01:30:51;301.10;;;282.40;;
14874;SDS011;7529;48.170;17.138;2022-11-15T01:35:22;299.73;;;281.02;;
14874;SDS011;7529;48.170;17.138;2022-11-15T01:39:52;331.73;;;311.73;;
14874;SDS011;7529;48.170;17.138;2022-11-15T01:49:25;388.35;;;363.77;;
14874;SDS011;7529;48.170;17.138;2022-11-15T01:53:58;349.70;;;328.10;;
14874;SDS011;7529;48.170;17.138;2022-11-15T01:58:33;285.17;;;267.35;;
14874;SDS011;7529;48.170;17.138;2022-11-15T02:03:04;237.82;;;223.80;;
14874;SDS011;7529;48.170;17.138;2022-11-15T02:07:34;221.60;;;208.60;;
14874;SDS011;7529;48.170;17.138;2022-11-15T02:12:06;223.43;;;210.70;;
14874;SDS011;7529;48.170;17.138;2022-11-15T02:17:01;196.43;;;185.30;;
14874;SDS011;7529;48.170;17.138;2022-11-15T02:41:14;145.98;;;136.88;;
14874;SDS011;7529;48.170;17.138;2022-11-15T02:45:58;142.52;;;133.82;;
14874;SDS011;7529;48.170;17.138;2022-11-15T02:51:16;138.93;;;130.27;;
14874;SDS011;7529;48.170;17.138;2022-11-15T02:55:50;126.07;;;117.50;;
14874;SDS011;7529;48.170;17.138;2022-11-15T03:00:21;127.45;;;118.35;;
14874;SDS011;7529;48.170;17.138;2022-11-15T03:04:53;135.75;;;127.20;;
14874;SDS011;7529;48.170;17.138;2022-11-15T03:14:29;153.93;;;144.68;;
14874;SDS011;7529;48.170;17.138;2022-11-15T03:24:08;164.40;;;154.80;;
14874;SDS011;7529;48.170;17.138;2022-11-15T03:28:50;167.98;;;157.75;;
14874;SDS011;7529;48.170;17.138;2022-11-15T03:33:34;176.88;;;165.90;;
14874;SDS011;7529;48.170;17.138;2022-11-15T03:43:00;205.48;;;193.70;;
14874;SDS011;7529;48.170;17.138;2022-11-15T03:47:34;206.40;;;193.88;;
14874;SDS011;7529;48.170;17.138;2022-11-15T03:52:09;205.77;;;193.55;;
14874;SDS011;7529;48.170;17.138;2022-11-15T03:56:39;223.68;;;211.43;;
14874;SDS011;7529;48.170;17.138;2022-11-15T04:01:10;208.95;;;197.52;;
14874;SDS011;7529;48.170;17.138;2022-11-15T04:05:42;209.45;;;197.27;;
14874;SDS011;7529;48.170;17.138;2022-11-15T04:10:13;206.95;;;195.10;;
14874;SDS011;7529;48.170;17.138;2022-11-15T04:14:43;205.65;;;193.85;;
14874;SDS011;7529;48.170;17.138;2022-11-15T04:19:34;210.45;;;198.32;;
14874;SDS011;7529;48.170;17.138;2022-11-15T04:24:25;211.63;;;199.50;;
14874;SDS011;7529;48.170;17.138;2022-11-15T04:28:58;206.25;;;194.25;;
14874;SDS011;7529;48.170;17.138;2022-11-15T04:33:47;205.00;;;193.35;;
14874;SDS011;7529;48.170;17.138;2022-11-15T04:38:18;199.85;;;188.95;;
14874;SDS011;7529;48.170;17.138;2022-11-15T04:42:48;216.73;;;204.43;;
14874;SDS011;7529;48.170;17.138;2022-11-15T04:47:18;211.23;;;198.82;;
14874;SDS011;7529;48.170;17.138;2022-11-15T04:51:50;219.35;;;206.60;;
14874;SDS011;7529;48.170;17.138;2022-11-15T04:56:20;215.88;;;204.07;;
14874;SDS011;7529;48.170;17.138;2022-11-15T05:00:52;201.50;;;189.85;;
14874;SDS011;7529;48.170;17.138;2022-11-15T05:05:23;213.95;;;202.20;;
14874;SDS011;7529;48.170;17.138;2022-11-15T05:09:53;214.45;;;202.18;;
14874;SDS011;7529;48.170;17.138;2022-11-15T05:14:25;201.85;;;191.02;;
14874;SDS011;7529;48.170;17.138;2022-11-15T05:19:01;199.07;;;188.23;;
14874;SDS011;7529;48.170;17.138;2022-11-15T05:23:31;209.85;;;198.32;;
14874;SDS011;7529;48.170;17.138;2022-11-15T05:28:03;202.85;;;191.63;;
14874;SDS011;7529;48.170;17.138;2022-11-15T05:32:36;203.30;;;192.07;;
14874;SDS011;7529;48.170;17.138;2022-11-15T05:37:06;184.80;;;174.40;;
14874;SDS011;7529;48.170;17.138;2022-11-15T05:41:44;195.13;;;184.45;;
14874;SDS011;7529;48.170;17.138;2022-11-15T05:46:16;185.98;;;175.75;;
14874;SDS011;7529;48.170;17.138;2022-11-15T05:50:48;195.20;;;184.40;;
14874;SDS011;7529;48.170;17.138;2022-11-15T05:55:18;200.52;;;189.38;;
14874;SDS011;7529;48.170;17.138;2022-11-15T05:59:48;193.70;;;182.70;;
14874;SDS011;7529;48.170;17.138;2022-11-15T06:04:19;188.98;;;178.70;;
14874;SDS011;7529;48.170;17.138;2022-11-15T06:08:48;160.05;;;150.95;;
14874;SDS011;7529;48.170;17.138;2022-11-15T06:13:19;165.55;;;156.40;;
14874;SDS011;7529;48.170;17.138;2022-11-15T06:17:49;132.43;;;124.18;;
14874;SDS011;7529;48.170;17.138;2022-11-15T06:22:19;163.80;;;153.73;;
14874;SDS011;7529;48.170;17.138;2022-11-15T06:26:50;132.85;;;124.95;;
14874;SDS011;7529;48.170;17.138;2022-11-15T06:31:20;123.65;;;116.45;;
14874;SDS011;7529;48.170;17.138;2022-11-15T06:35:50;123.47;;;116.65;;
14874;SDS011;7529;48.170;17.138;2022-11-15T06:40:21;113.28;;;106.47;;
14874;SDS011;7529;48.170;17.138;2022-11-15T06:44:51;104.13;;;98.13;;
14874;SDS011;7529;48.170;17.138;2022-11-15T06:49:21;95.05;;;89.28;;
14874;SDS011;7529;48.170;17.138;2022-11-15T06:53:51;71.95;;;67.63;;
14874;SDS011;7529;48.170;17.138;2022-11-15T06:58:22;87.22;;;81.88;;
14874;SDS011;7529;48.170;17.138;2022-11-15T07:02:51;90.85;;;85.32;;
14874;SDS011;7529;48.170;17.138;2022-11-15T07:07:22;89.72;;;84.40;;
14874;SDS011;7529;48.170;17.138;2022-11-15T07:11:51;79.28;;;74.55;;
14874;SDS011;7529;48.170;17.138;2022-11-15T07:16:22;85.25;;;80.10;;
14874;SDS011;7529;48.170;17.138;2022-11-15T07:20:52;88.60;;;83.28;;
14874;SDS011;7529;48.170;17.138;2022-11-15T07:25:23;79.22;;;74.50;;
14874;SDS011;7529;48.170;17.138;2022-11-15T07:29:55;73.43;;;68.93;;
14874;SDS011;7529;48.170;17.138;2022-11-15T07:34:26;71.90;;;67.45;;
14874;SDS011;7529;48.170;17.138;2022-11-15T07:38:57;21.40;;;19.65;;
14874;SDS011;7529;48.170;17.138;2022-11-15T07:43:27;22.33;;;20.33;;
14874;SDS011;7529;48.170;17.138;2022-11-15T07:47:58;51.92;;;48.50;;
14874;SDS011;7529;48.170;17.138;2022-11-15T07:52:30;58.72;;;54.95;;
14874;SDS011;7529;48.170;17.138;2022-11-15T07:57:00;48.22;;;44.90;;
14874;SDS011;7529;48.170;17.138;2022-11-15T08:01:31;20.27;;;18.65;;
14874;SDS011;7529;48.170;17.138;2022-11-15T08:06:01;18.95;;;17.50;;
14874;SDS011;7529;48.170;17.138;2022-11-15T08:10:32;20.58;;;18.95;;
14874;SDS011;7529;48.170;17.138;2022-11-15T08:15:03;20.27;;;18.67;;
14874;SDS011;7529;48.170;17.138;2022-11-15T08:19:33;19.92;;;18.10;;
14874;SDS011;7529;48.170;17.138;2022-11-15T08:24:03;20.55;;;18.75;;
14874;SDS011;7529;48.170;17.138;2022-11-15T08:28:34;20.38;;;18.88;;
14874;SDS011;7529;48.170;17.138;2022-11-15T08:33:04;20.75;;;19.08;;
14874;SDS011;7529;48.170;17.138;2022-11-15T08:37:35;20.55;;;18.90;;
14874;SDS011;7529;48.170;17.138;2022-11-15T08:42:05;35.92;;;33.05;;
14874;SDS011;7529;48.170;17.138;2022-11-15T08:46:36;22.98;;;20.95;;
14874;SDS011;7529;48.170;17.138;2022-11-15T08:51:08;21.40;;;19.60;;
14874;SDS011;7529;48.170;17.138;2022-11-15T08:55:39;22.10;;;20.15;;
14874;SDS011;7529;48.170;17.138;2022-11-15T09:00:12;21.20;;;19.45;;
14874;SDS011;7529;48.170;17.138;2022-11-15T09:04:44;21.20;;;19.15;;
14874;SDS011;7529;48.170;17.138;2022-11-15T09:09:20;21.20;;;19.13;;
14874;SDS011;7529;48.170;17.138;2022-11-15T09:13:50;20.70;;;18.88;;
14874;SDS011;7529;48.170;17.138;2022-11-15T09:18:22;21.35;;;19.50;;
14874;SDS011;7529;48.170;17.138;2022-11-15T09:22:53;20.63;;;18.92;;
14874;SDS011;7529;48.170;17.138;2022-11-15T09:27:27;30.95;;;20.42;;
14874;SDS011;7529;48.170;17.138;2022-11-15T09:31:57;21.30;;;19.08;;
14874;SDS011;7529;48.170;17.138;2022-11-15T09:36:27;39.88;;;22.05;;
14874;SDS011;7529;48.170;17.138;2022-11-15T09:46:54;20.08;;;18.08;;
14874;SDS011;7529;48.170;17.138;2022-11-15T09:51:03;19.52;;;18.00;;
14874;SDS011;7529;48.170;17.138;2022-11-15T09:55:15;18.70;;;17.23;;
14874;SDS011;7529;48.170;17.138;2022-11-15T10:04:01;20.60;;;18.80;;
14874;SDS011;7529;48.170;17.138;2022-11-15T10:12:44;19.98;;;17.92;;
14874;SDS011;7529;48.170;17.138;2022-11-15T10:25:54;19.33;;;17.70;;
14874;SDS011;7529;48.170;17.138;2022-11-15T10:30:12;18.00;;;16.70;;
14874;SDS011;7529;48.170;17.138;2022-11-15T10:34:27;17.65;;;16.33;;
14874;SDS011;7529;48.170;17.138;2022-11-15T10:47:22;21.15;;;19.15;;
14874;SDS011;7529;48.170;17.138;2022-11-15T10:51:35;19.85;;;18.13;;
14874;SDS011;7529;48.170;17.138;2022-11-15T10:56:12;23.65;;;18.80;;
14874;SDS011;7529;48.170;17.138;2022-11-15T11:00:35;18.85;;;17.35;;
14874;SDS011;7529;48.170;17.138;2022-11-15T11:04:52;19.27;;;17.55;;
14874;SDS011;7529;48.170;17.138;2022-11-15T11:09:05;20.15;;;18.55;;
14874;SDS011;7529;48.170;17.138;2022-11-15T11:13:23;20.60;;;19.00;;
14874;SDS011;7529;48.170;17.138;2022-11-15T11:17:51;22.27;;;20.23;;
14874;SDS011;7529;48.170;17.138;2022-11-15T11:22:19;19.90;;;17.98;;
14874;SDS011;7529;48.170;17.138;2022-11-15T11:26:46;21.02;;;19.42;;
14874;SDS011;7529;48.170;17.138;2022-11-15T11:31:20;21.55;;;19.70;;
14874;SDS011;7529;48.170;17.138;2022-11-15T11:35:54;25.23;;;23.10;;
14874;SDS011;7529;48.170;17.138;2022-11-15T11:40:24;22.80;;;20.83;;
14874;SDS011;7529;48.170;17.138;2022-11-15T11:49:23;22.38;;;20.67;;
14874;SDS011;7529;48.170;17.138;2022-11-15T11:54:06;22.20;;;20.38;;
14874;SDS011;7529;48.170;17.138;2022-11-15T11:58:40;22.38;;;20.40;;
14874;SDS011;7529;48.170;17.138;2022-11-15T12:07:20;23.27;;;21.35;;
14874;SDS011;7529;48.170;17.138;2022-11-15T12:20:35;24.60;;;22.67;;
14874;SDS011;7529;48.170;17.138;2022-11-15T12:24:54;26.08;;;23.88;;
14874;SDS011;7529;48.170;17.138;2022-11-15T12:29:15;27.48;;;24.77;;
14874;SDS011;7529;48.170;17.138;2022-11-15T12:33:46;25.17;;;23.27;;
14874;SDS011;7529;48.170;17.138;2022-11-15T12:37:59;26.15;;;23.88;;
14874;SDS011;7529;48.170;17.138;2022-11-15T12:46:24;27.42;;;25.10;;
14874;SDS011;7529;48.170;17.138;2022-11-15T12:50:57;26.10;;;23.80;;
14874;SDS011;7529;48.170;17.138;2022-11-15T12:55:28;25.80;;;23.55;;
14874;SDS011;7529;48.170;17.138;2022-11-15T13:08:40;28.23;;;25.70;;
14874;SDS011;7529;48.170;17.138;2022-11-15T13:21:55;24.48;;;22.55;;
14874;SDS011;7529;48.170;17.138;2022-11-15T13:26:26;26.10;;;23.98;;
14874;SDS011;7529;48.170;17.138;2022-11-15T13:30:39;27.02;;;24.40;;
14874;SDS011;7529;48.170;17.138;2022-11-15T13:34:58;23.67;;;21.60;;
14874;SDS011;7529;48.170;17.138;2022-11-15T13:43:38;27.95;;;25.35;;
14874;SDS011;7529;48.170;17.138;2022-11-15T13:47:56;28.02;;;25.75;;
14874;SDS011;7529;48.170;17.138;2022-11-15T13:52:10;26.73;;;23.75;;
14874;SDS011;7529;48.170;17.138;2022-11-15T13:56:24;31.17;;;28.13;;
14874;SDS011;7529;48.170;17.138;2022-11-15T14:00:41;30.85;;;28.10;;
14874;SDS011;7529;48.170;17.138;2022-11-15T14:05:00;27.83;;;25.67;;
14874;SDS011;7529;48.170;17.138;2022-11-15T14:09:24;24.17;;;22.27;;
14874;SDS011;7529;48.170;17.138;2022-11-15T14:13:42;28.05;;;25.85;;
14874;SDS011;7529;48.170;17.138;2022-11-15T14:18:38;28.10;;;25.67;;
14874;SDS011;7529;48.170;17.138;2022-11-15T14:22:57;26.48;;;24.33;;
14874;SDS011;7529;48.170;17.138;2022-11-15T14:27:29;25.17;;;23.17;;
14874;SDS011;7529;48.170;17.138;2022-11-15T14:31:40;27.52;;;25.25;;
14874;SDS011;7529;48.170;17.138;2022-11-15T14:35:52;32.55;;;24.40;;
14874;SDS011;7529;48.170;17.138;2022-11-15T14:40:08;25.83;;;23.50;;
14874;SDS011;7529;48.170;17.138;2022-11-15T14:44:24;24.58;;;22.77;;
14874;SDS011;7529;48.170;17.138;2022-11-15T14:48:36;26.17;;;23.83;;
14874;SDS011;7529;48.170;17.138;2022-11-15T14:52:48;26.65;;;24.48;;
14874;SDS011;7529;48.170;17.138;2022-11-15T14:56:59;27.02;;;25.05;;
14874;SDS011;7529;48.170;17.138;2022-11-15T15:01:19;25.75;;;23.92;;
14874;SDS011;7529;48.170;17.138;2022-11-15T15:05:35;26.98;;;24.42;;
14874;SDS011;7529;48.170;17.138;2022-11-15T15:09:48;27.33;;;24.95;;
14874;SDS011;7529;48.170;17.138;2022-11-15T15:13:59;24.92;;;22.75;;
14874;SDS011;7529;48.170;17.138;2022-11-15T15:18:12;25.00;;;23.08;;
14874;SDS011;7529;48.170;17.138;2022-11-15T15:22:27;27.23;;;25.00;;
14874;SDS011;7529;48.170;17.138;2022-11-15T15:26:39;28.23;;;26.05;;
14874;SDS011;7529;48.170;17.138;2022-11-15T15:30:51;27.77;;;25.77;;
14874;SDS011;7529;48.170;17.138;2022-11-15T15:35:03;33.25;;;30.48;;
14874;SDS011;7529;48.170;17.138;2022-11-15T15:39:16;27.27;;;25.42;;
14874;SDS011;7529;48.170;17.138;2022-11-15T15:43:28;22.08;;;20.48;;
14874;SDS011;7529;48.170;17.138;2022-11-15T15:47:40;25.52;;;23.73;;
14874;SDS011;7529;48.170;17.138;2022-11-15T15:51:51;34.10;;;31.70;;
14874;SDS011;7529;48.170;17.138;2022-11-15T15:56:03;25.27;;;23.38;;
14874;SDS011;7529;48.170;17.138;2022-11-15T16:00:18;25.73;;;23.67;;
14874;SDS011;7529;48.170;17.138;2022-11-15T16:04:30;24.95;;;23.10;;
14874;SDS011;7529;48.170;17.138;2022-11-15T16:08:45;25.80;;;23.98;;
14874;SDS011;7529;48.170;17.138;2022-11-15T16:12:57;25.45;;;23.60;;
14874;SDS011;7529;48.170;17.138;2022-11-15T16:17:11;26.65;;;24.55;;
14874;SDS011;7529;48.170;17.138;2022-11-15T16:21:32;29.00;;;26.70;;
14874;SDS011;7529;48.170;17.138;2022-11-15T16:25:44;27.95;;;25.50;;
14874;SDS011;7529;48.170;17.138;2022-11-15T16:30:00;32.97;;;30.45;;
14874;SDS011;7529;48.170;17.138;2022-11-15T16:34:11;33.50;;;30.95;;
14874;SDS011;7529;48.170;17.138;2022-11-15T16:38:23;28.48;;;26.48;;
14874;SDS011;7529;48.170;17.138;2022-11-15T16:42:36;29.85;;;27.13;;
14874;SDS011;7529;48.170;17.138;2022-11-15T16:46:50;39.65;;;36.88;;
14874;SDS011;7529;48.170;17.138;2022-11-15T16:51:03;37.20;;;34.53;;
14874;SDS011;7529;48.170;17.138;2022-11-15T16:55:15;43.13;;;39.70;;
14874;SDS011;7529;48.170;17.138;2022-11-15T16:59:26;43.55;;;40.38;;
14874;SDS011;7529;48.170;17.138;2022-11-15T17:03:39;46.47;;;42.65;;
14874;SDS011;7529;48.170;17.138;2022-11-15T17:07:50;48.10;;;44.38;;
14874;SDS011;7529;48.170;17.138;2022-11-15T17:12:03;40.72;;;37.47;;
14874;SDS011;7529;48.170;17.138;2022-11-15T17:16:16;34.67;;;32.05;;
14874;SDS011;7529;48.170;17.138;2022-11-15T17:20:28;37.70;;;34.78;;
14874;SDS011;7529;48.170;17.138;2022-11-15T17:24:39;45.95;;;42.63;;
14874;SDS011;7529;48.170;17.138;2022-11-15T17:28:54;44.97;;;41.85;;
14874;SDS011;7529;48.170;17.138;2022-11-15T17:33:10;42.15;;;39.13;;
14874;SDS011;7529;48.170;17.138;2022-11-15T17:37:22;44.13;;;40.63;;
14874;SDS011;7529;48.170;17.138;2022-11-15T17:41:34;41.63;;;38.60;;
14874;SDS011;7529;48.170;17.138;2022-11-15T17:45:46;40.50;;;37.63;;
14874;SDS011;7529;48.170;17.138;2022-11-15T17:49:58;45.90;;;42.45;;
14874;SDS011;7529;48.170;17.138;2022-11-15T17:54:09;34.53;;;32.10;;
14874;SDS011;7529;48.170;17.138;2022-11-15T17:58:21;42.35;;;39.10;;
14874;SDS011;7529;48.170;17.138;2022-11-15T18:02:35;47.42;;;44.05;;
14874;SDS011;7529;48.170;17.138;2022-11-15T18:06:47;45.20;;;40.75;;
14874;SDS011;7529;48.170;17.138;2022-11-15T18:11:05;40.40;;;37.63;;
14874;SDS011;7529;48.170;17.138;2022-11-15T18:15:18;46.17;;;42.20;;
14874;SDS011;7529;48.170;17.138;2022-11-15T18:19:30;39.08;;;36.17;;
14874;SDS011;7529;48.170;17.138;2022-11-15T18:23:43;38.53;;;35.70;;
14874;SDS011;7529;48.170;17.138;2022-11-15T18:27:56;40.92;;;37.97;;
14874;SDS011;7529;48.170;17.138;2022-11-15T18:32:07;42.35;;;39.38;;
14874;SDS011;7529;48.170;17.138;2022-11-15T18:36:26;41.30;;;38.00;;
14874;SDS011;7529;48.170;17.138;2022-11-15T18:40:38;44.20;;;41.00;;
14874;SDS011;7529;48.170;17.138;2022-11-15T18:44:50;44.65;;;41.55;;
14874;SDS011;7529;48.170;17.138;2022-11-15T18:49:01;43.78;;;40.60;;
14874;SDS011;7529;48.170;17.138;2022-11-15T18:53:14;225.05;;;213.18;;
14874;SDS011;7529;48.170;17.138;2022-11-15T18:57:26;45.28;;;41.78;;
14874;SDS011;7529;48.170;17.138;2022-11-15T19:01:38;47.38;;;43.83;;
14874;SDS011;7529;48.170;17.138;2022-11-15T19:05:51;48.97;;;45.15;;
14874;SDS011;7529;48.170;17.138;2022-11-15T19:10:07;48.50;;;44.17;;
14874;SDS011;7529;48.170;17.138;2022-11-15T19:14:20;50.85;;;46.60;;
14874;SDS011;7529;48.170;17.138;2022-11-15T19:18:33;52.42;;;47.88;;
14874;SDS011;7529;48.170;17.138;2022-11-15T19:22:44;47.35;;;43.83;;
14874;SDS011;7529;48.170;17.138;2022-11-15T19:26:56;52.42;;;47.97;;
14874;SDS011;7529;48.170;17.138;2022-11-15T19:31:12;49.80;;;46.05;;
14874;SDS011;7529;48.170;17.138;2022-11-15T19:35:25;47.45;;;43.40;;
14874;SDS011;7529;48.170;17.138;2022-11-15T19:39:36;51.20;;;47.03;;
14874;SDS011;7529;48.170;17.138;2022-11-15T19:43:48;48.80;;;44.55;;
14874;SDS011;7529;48.170;17.138;2022-11-15T19:48:00;44.65;;;40.75;;
14874;SDS011;7529;48.170;17.138;2022-11-15T19:52:14;46.83;;;43.22;;
14874;SDS011;7529;48.170;17.138;2022-11-15T19:56:28;51.25;;;46.08;;
14874;SDS011;7529;48.170;17.138;2022-11-15T20:00:39;42.40;;;39.08;;
14874;SDS011;7529;48.170;17.138;2022-11-15T20:04:51;40.67;;;37.25;;
14874;SDS011;7529;48.170;17.138;2022-11-15T20:09:02;43.92;;;40.28;;
14874;SDS011;7529;48.170;17.138;2022-11-15T20:13:15;43.25;;;39.47;;
14874;SDS011;7529;48.170;17.138;2022-11-15T20:17:27;40.00;;;36.90;;
14874;SDS011;7529;48.170;17.138;2022-11-15T20:21:39;40.70;;;37.60;;
14874;SDS011;7529;48.170;17.138;2022-11-15T20:25:51;42.08;;;39.17;;
14874;SDS011;7529;48.170;17.138;2022-11-15T20:30:04;40.15;;;36.78;;
14874;SDS011;7529;48.170;17.138;2022-11-15T20:34:16;43.30;;;39.80;;
14874;SDS011;7529;48.170;17.138;2022-11-15T20:38:30;38.90;;;35.85;;
14874;SDS011;7529;48.170;17.138;2022-11-15T20:42:42;40.50;;;36.75;;
14874;SDS011;7529;48.170;17.138;2022-11-15T20:46:54;41.53;;;38.03;;
14874;SDS011;7529;48.170;17.138;2022-11-15T20:51:10;43.30;;;39.17;;
14874;SDS011;7529;48.170;17.138;2022-11-15T20:55:30;43.90;;;39.85;;
14874;SDS011;7529;48.170;17.138;2022-11-15T20:59:42;42.25;;;38.58;;
14874;SDS011;7529;48.170;17.138;2022-11-15T21:03:55;41.40;;;37.78;;
14874;SDS011;7529;48.170;17.138;2022-11-15T21:08:08;40.22;;;37.05;;
14874;SDS011;7529;48.170;17.138;2022-11-15T21:12:20;48.45;;;44.63;;
14874;SDS011;7529;48.170;17.138;2022-11-15T21:16:31;45.58;;;41.88;;
14874;SDS011;7529;48.170;17.138;2022-11-15T21:20:43;43.60;;;39.90;;
14874;SDS011;7529;48.170;17.138;2022-11-15T21:24:54;48.95;;;45.20;;
14874;SDS011;7529;48.170;17.138;2022-11-15T21:29:11;47.88;;;43.40;;
14874;SDS011;7529;48.170;17.138;2022-11-15T21:33:26;44.67;;;41.17;;
14874;SDS011;7529;48.170;17.138;2022-11-15T21:37:38;47.83;;;43.80;;
14874;SDS011;7529;48.170;17.138;2022-11-15T21:41:50;52.50;;;48.38;;
14874;SDS011;7529;48.170;17.138;2022-11-15T21:46:02;50.25;;;45.95;;
14874;SDS011;7529;48.170;17.138;2022-11-15T21:50:15;56.25;;;51.38;;
14874;SDS011;7529;48.170;17.138;2022-11-15T21:54:27;50.63;;;46.10;;
14874;SDS011;7529;48.170;17.138;2022-11-15T21:58:38;52.05;;;47.60;;
14874;SDS011;7529;48.170;17.138;2022-11-15T22:02:51;51.55;;;47.25;;
14874;SDS011;7529;48.170;17.138;2022-11-15T22:07:04;51.47;;;47.08;;
14874;SDS011;7529;48.170;17.138;2022-11-15T22:11:15;52.53;;;47.85;;
14874;SDS011;7529;48.170;17.138;2022-11-15T22:15:27;52.08;;;47.05;;
14874;SDS011;7529;48.170;17.138;2022-11-15T22:19:39;51.80;;;47.47;;
14874;SDS011;7529;48.170;17.138;2022-11-15T22:23:50;73.10;;;67.53;;
14874;SDS011;7529;48.170;17.138;2022-11-15T22:28:02;52.72;;;48.35;;
14874;SDS011;7529;48.170;17.138;2022-11-15T22:32:15;51.05;;;46.13;;
14874;SDS011;7529;48.170;17.138;2022-11-15T22:36:26;47.92;;;43.60;;
14874;SDS011;7529;48.170;17.138;2022-11-15T22:40:38;56.67;;;51.95;;
14874;SDS011;7529;48.170;17.138;2022-11-15T22:44:50;50.67;;;46.30;;
14874;SDS011;7529;48.170;17.138;2022-11-15T22:49:01;57.03;;;52.30;;
14874;SDS011;7529;48.170;17.138;2022-11-15T22:53:13;60.60;;;55.00;;
14874;SDS011;7529;48.170;17.138;2022-11-15T22:57:25;203.60;;;190.90;;
14874;SDS011;7529;48.170;17.138;2022-11-15T23:01:37;56.70;;;51.05;;
14874;SDS011;7529;48.170;17.138;2022-11-15T23:05:49;194.50;;;182.52;;
14874;SDS011;7529;48.170;17.138;2022-11-15T23:10:02;57.25;;;52.35;;
14874;SDS011;7529;48.170;17.138;2022-11-15T23:14:33;59.08;;;54.20;;
14874;SDS011;7529;48.170;17.138;2022-11-15T23:18:45;203.90;;;191.32;;
14874;SDS011;7529;48.170;17.138;2022-11-15T23:22:58;278.75;;;262.30;;
14874;SDS011;7529;48.170;17.138;2022-11-15T23:27:09;53.25;;;48.13;;
14874;SDS011;7529;48.170;17.138;2022-11-15T23:31:24;49.10;;;45.13;;
14874;SDS011;7529;48.170;17.138;2022-11-15T23:35:54;209.57;;;196.77;;
14874;SDS011;7529;48.170;17.138;2022-11-15T23:40:06;47.58;;;43.45;;
14874;SDS011;7529;48.170;17.138;2022-11-15T23:44:18;48.88;;;44.58;;
14874;SDS011;7529;48.170;17.138;2022-11-15T23:48:29;52.72;;;47.35;;
14874;SDS011;7529;48.170;17.138;2022-11-15T23:52:41;45.28;;;41.58;;
14874;SDS011;7529;48.170;17.138;2022-11-15T23:56:54;50.22;;;45.85;;
